createdAt,value
2022-10-10T00:00:24.063Z,98555.03
2022-10-10T00:03:25.553Z,98548.78
2022-10-10T00:06:31.922Z,98546.91
2022-10-10T00:09:34.869Z,98542.50
2022-10-10T00:12:37.862Z,98531.84
2022-10-10T00:15:39.391Z,98538.91
2022-10-10T00:18:41.895Z,98537.94
2022-10-10T00:21:44.308Z,98522.09
2022-10-10T00:24:45.831Z,98526.53
2022-10-10T00:27:48.843Z,98514.25
2022-10-10T00:30:50.489Z,98526.75
2022-10-10T00:33:52.145Z,98523.16
2022-10-10T00:36:53.598Z,98524.81
2022-10-10T00:39:55.570Z,98518.56
2022-10-10T00:42:58.988Z,98516.97
2022-10-10T00:46:00.440Z,98519.56
2022-10-10T00:49:05.286Z,98506.97
2022-10-10T00:52:09.787Z,98514.16
2022-10-10T00:55:12.312Z,98507.03
2022-10-10T00:58:16.227Z,98501.63
2022-10-10T01:01:17.999Z,98503.41
2022-10-10T01:04:30.605Z,98502.53
2022-10-10T01:07:32.891Z,98498.13
2022-10-10T01:10:36.391Z,98490.28
2022-10-10T01:13:45.977Z,98492.81
2022-10-10T01:16:51.557Z,98490.28
2022-10-10T01:20:04.368Z,98491.06
2022-10-10T01:23:24.984Z,98480.44
2022-10-10T01:26:47.476Z,98473.38
2022-10-10T01:29:56.240Z,98469.00
2022-10-10T01:33:07.573Z,98463.72
2022-10-10T01:36:11.370Z,98477.97
2022-10-10T01:39:15.989Z,98473.50
2022-10-10T01:42:20.452Z,98467.41
2022-10-10T01:45:23.433Z,98462.00
2022-10-10T01:48:28.972Z,98453.22
2022-10-10T01:51:44.246Z,98460.41
2022-10-10T01:54:50.046Z,98457.00
2022-10-10T01:57:59.742Z,98457.94
2022-10-10T02:01:07.659Z,98464.13
2022-10-10T02:04:13.677Z,98451.88
2022-10-10T02:07:18.926Z,98454.63
2022-10-10T02:10:22.541Z,98444.06
2022-10-10T02:13:27.601Z,98443.34
2022-10-10T02:16:32.304Z,98447.69
2022-10-10T02:19:34.275Z,98443.22
2022-10-10T02:22:37.176Z,98438.03
2022-10-10T02:25:40.097Z,98440.06
2022-10-10T02:28:44.696Z,98438.25
2022-10-10T02:31:50.868Z,98439.28
2022-10-10T02:34:55.540Z,98451.06
2022-10-10T02:37:58.271Z,98446.69
2022-10-10T02:41:04.246Z,98442.53
2022-10-10T02:44:10.091Z,98441.53
2022-10-10T02:47:13.504Z,98444.09
2022-10-10T02:50:15.138Z,98438.50
2022-10-10T02:53:16.688Z,98437.41
2022-10-10T02:56:18.152Z,98425.88
2022-10-10T02:59:20.233Z,98431.31
2022-10-10T03:02:23.507Z,98429.44
2022-10-10T03:05:25.094Z,98421.44
2022-10-10T03:08:26.634Z,98426.06
2022-10-10T03:11:28.303Z,98419.00
2022-10-10T03:14:29.865Z,98419.88
2022-10-10T03:17:35.735Z,98412.88
2022-10-10T03:20:39.952Z,98423.53
2022-10-10T03:23:41.775Z,98412.09
2022-10-10T03:26:43.256Z,98404.91
2022-10-10T03:29:44.917Z,98409.38
2022-10-10T03:32:48.103Z,98413.47
2022-10-10T03:35:49.906Z,98411.63
2022-10-10T03:38:51.533Z,98407.03
2022-10-10T03:41:53.146Z,98405.31
2022-10-10T03:44:54.788Z,98402.03
2022-10-10T03:47:57.722Z,98395.13
2022-10-10T03:50:59.517Z,98401.53
2022-10-10T03:54:01.070Z,98404.44
2022-10-10T03:57:02.729Z,98389.53
2022-10-10T04:00:04.562Z,98393.06
2022-10-10T04:03:08.240Z,98396.00
2022-10-10T04:06:10.129Z,98386.44
2022-10-10T04:09:12.130Z,98380.28
2022-10-10T04:12:13.694Z,98374.03
2022-10-10T04:15:15.376Z,98375.78
2022-10-10T04:18:18.389Z,98368.63
2022-10-10T04:21:19.931Z,98372.56
2022-10-10T04:24:21.685Z,98365.19
2022-10-10T04:27:23.212Z,98372.13
2022-10-10T04:30:24.765Z,98370.38
2022-10-10T04:33:27.730Z,98364.31
2022-10-10T04:36:29.560Z,98360.94
2022-10-10T04:39:32.389Z,98359.56
2022-10-10T04:42:33.954Z,98347.66
2022-10-10T04:45:37.740Z,98345.66
2022-10-10T04:48:40.957Z,98344.31
2022-10-10T04:51:42.641Z,98343.69
2022-10-10T04:54:44.318Z,98351.00
2022-10-10T04:57:46.108Z,98342.88
2022-10-10T05:00:50.812Z,98344.22
2022-10-10T05:03:54.024Z,98340.72
2022-10-10T05:06:57.924Z,98338.91
2022-10-10T05:09:59.532Z,98335.13
2022-10-10T05:13:01.535Z,98343.09
2022-10-10T05:16:03.062Z,98336.19
2022-10-10T05:19:05.973Z,98342.59
2022-10-10T05:22:07.630Z,98330.47
2022-10-10T05:25:09.410Z,98348.25
2022-10-10T05:28:11.561Z,98337.94
2022-10-10T05:31:13.601Z,98339.94
2022-10-10T05:34:19.073Z,98338.31
2022-10-10T05:37:20.964Z,98336.66
2022-10-10T05:40:22.671Z,98338.44
2022-10-10T05:43:24.198Z,98333.25
2022-10-10T05:46:27.465Z,98333.34
2022-10-10T05:49:30.794Z,98339.50
2022-10-10T05:52:32.353Z,98341.22
2022-10-10T05:55:33.945Z,98333.34
2022-10-10T05:58:35.518Z,98333.28
2022-10-10T06:01:37.094Z,98333.25
2022-10-10T06:04:40.299Z,98328.66
2022-10-10T06:08:03.569Z,98329.53
2022-10-10T06:11:04.274Z,98344.81
2022-10-10T06:14:06.008Z,98329.53
2022-10-10T06:17:07.580Z,98332.84
2022-10-10T06:20:10.673Z,98337.06
2022-10-10T06:23:12.271Z,98330.66
2022-10-10T06:26:15.473Z,98341.81
2022-10-10T06:29:17.096Z,98345.88
2022-10-10T06:32:18.997Z,98343.72
2022-10-10T06:35:21.973Z,98351.38
2022-10-10T06:38:23.536Z,98349.59
2022-10-10T06:41:25.160Z,98348.50
2022-10-10T06:44:27.006Z,98357.19
2022-10-10T06:47:29.855Z,98358.03
2022-10-10T06:50:32.712Z,98355.41
2022-10-10T06:53:34.702Z,98360.50
2022-10-10T06:56:36.240Z,98355.91
2022-10-10T06:59:37.924Z,98357.56
2022-10-10T07:02:40.992Z,98357.34
2022-10-10T07:05:44.134Z,98363.34
2022-10-10T07:08:45.678Z,98352.41
2022-10-10T07:11:47.708Z,98354.81
2022-10-10T07:14:49.915Z,98357.19
2022-10-10T07:17:56.650Z,98352.63
2022-10-10T07:21:05.684Z,98357.00
2022-10-10T07:24:07.240Z,98362.81
2022-10-10T07:27:09.073Z,98360.72
2022-10-10T07:30:11.486Z,98362.75
2022-10-10T07:33:14.412Z,98357.00
2022-10-10T07:36:18.338Z,98347.81
2022-10-10T07:39:20.428Z,98351.00
2022-10-10T07:42:22.052Z,98354.13
2022-10-10T07:45:23.594Z,98350.25
2022-10-10T07:48:25.202Z,98348.09
2022-10-10T07:51:28.285Z,98341.47
2022-10-10T07:54:30.519Z,98346.22
2022-10-10T07:57:35.209Z,98332.66
2022-10-10T08:00:38.710Z,98340.13
2022-10-10T08:03:40.554Z,98335.38
2022-10-10T08:06:43.564Z,98343.13
2022-10-10T08:09:45.167Z,98335.38
2022-10-10T08:12:46.741Z,98331.47
2022-10-10T08:15:50.210Z,98330.88
2022-10-10T08:18:51.739Z,98327.19
2022-10-10T08:21:54.605Z,98324.69
2022-10-10T08:24:56.333Z,98328.59
2022-10-10T08:27:57.929Z,98330.63
2022-10-10T08:31:01.963Z,98330.16
2022-10-10T08:34:05.877Z,98322.84
2022-10-10T08:37:08.869Z,98316.84
2022-10-10T08:40:13.366Z,98322.47
2022-10-10T08:43:21.729Z,98308.59
2022-10-10T08:46:30.635Z,98319.56
2022-10-10T08:49:34.246Z,98318.53
2022-10-10T08:52:39.837Z,98317.78
2022-10-10T08:55:43.902Z,98331.41
2022-10-10T08:58:48.552Z,98321.91
2022-10-10T09:02:17.561Z,98326.91
2022-10-10T09:05:15.396Z,98309.16
2022-10-10T09:08:35.393Z,98314.94
2022-10-10T09:11:44.641Z,98301.38
2022-10-10T09:14:49.797Z,98310.63
2022-10-10T09:17:58.780Z,98304.75
2022-10-10T09:21:05.573Z,98308.34
2022-10-10T09:24:12.145Z,98306.81
2022-10-10T09:27:16.843Z,98304.38
2022-10-10T09:30:19.947Z,98307.44
2022-10-10T09:33:26.441Z,98306.38
2022-10-10T09:36:34.137Z,98308.16
2022-10-10T09:39:38.918Z,98307.69
2022-10-10T09:42:43.325Z,98302.56
2022-10-10T09:45:47.614Z,98291.41
2022-10-10T09:48:49.327Z,98303.38
2022-10-10T09:51:51.141Z,98308.25
2022-10-10T09:54:56.909Z,98301.59
2022-10-10T09:58:02.901Z,98312.91
2022-10-10T10:01:13.832Z,98308.72
2022-10-10T10:04:27.148Z,98321.81
2022-10-10T10:07:34.438Z,98320.66
2022-10-10T10:10:38.215Z,98326.97
2022-10-10T10:13:39.735Z,98326.88
2022-10-10T10:16:41.443Z,98321.44
2022-10-10T10:19:44.047Z,98333.28
2022-10-10T10:22:47.093Z,98325.84
2022-10-10T10:25:56.886Z,98326.19
2022-10-10T10:28:58.934Z,98323.44
2022-10-10T10:32:04.255Z,98330.81
2022-10-10T10:35:09.762Z,98331.97
2022-10-10T10:38:21.391Z,98331.47
2022-10-10T10:41:29.643Z,98334.78
2022-10-10T10:44:36.446Z,98331.72
2022-10-10T10:47:42.924Z,98328.00
2022-10-10T10:50:48.028Z,98328.84
2022-10-10T10:53:54.004Z,98334.78
2022-10-10T10:57:06.352Z,98327.47
2022-10-10T11:00:21.128Z,98323.91
2022-10-10T11:05:16.238Z,98327.34
2022-10-10T11:07:20.695Z,98314.69
2022-10-10T11:10:27.414Z,98316.00
2022-10-10T11:13:34.458Z,98318.91
2022-10-10T11:16:48.935Z,98317.47
2022-10-10T11:19:56.905Z,98318.16
2022-10-10T11:23:05.261Z,98318.56
2022-10-10T11:26:13.923Z,98323.94
2022-10-10T11:29:20.063Z,98318.34
2022-10-10T11:32:24.275Z,98319.31
2022-10-10T11:35:33.537Z,98325.66
2022-10-10T11:38:38.584Z,98319.63
2022-10-10T11:41:41.941Z,98317.44
2022-10-10T11:44:46.946Z,98309.66
2022-10-10T11:47:54.384Z,98314.00
2022-10-10T11:50:58.945Z,98311.94
2022-10-10T11:54:02.198Z,98311.38
2022-10-10T11:57:07.525Z,98305.50
2022-10-10T12:00:15.783Z,98310.13
2022-10-10T12:03:18.110Z,98308.75
2022-10-10T12:06:23.602Z,98315.38
2022-10-10T12:09:27.907Z,98315.91
2022-10-10T12:12:30.446Z,98312.81
2022-10-10T12:15:39.933Z,98319.16
2022-10-10T12:18:45.386Z,98315.28
2022-10-10T12:21:52.485Z,98303.66
2022-10-10T12:25:09.175Z,98298.41
2022-10-10T12:28:24.691Z,98303.34
2022-10-10T12:31:31.607Z,98315.06
2022-10-10T12:34:40.850Z,98298.47
2022-10-10T12:38:02.533Z,98296.31
2022-10-10T12:41:09.068Z,98285.25
2022-10-10T12:44:21.200Z,98285.84
2022-10-10T12:47:52.716Z,98293.75
2022-10-10T12:50:56.150Z,98292.16
2022-10-10T12:53:59.077Z,98294.69
2022-10-10T12:57:12.106Z,98287.19
2022-10-10T13:00:17.970Z,98275.09
2022-10-10T13:03:25.118Z,98288.38
2022-10-10T13:06:33.534Z,98280.31
2022-10-10T13:09:36.022Z,98280.34
2022-10-10T13:12:40.638Z,98277.97
2022-10-10T13:15:50.807Z,98282.03
2022-10-10T13:18:55.138Z,98289.97
2022-10-10T13:21:56.704Z,98293.75
2022-10-10T13:24:58.764Z,98292.00
2022-10-10T13:28:00.859Z,98293.75
2022-10-10T13:31:04.518Z,98299.56
2022-10-10T13:34:08.172Z,98302.59
2022-10-10T13:37:13.964Z,98304.66
2022-10-10T13:40:19.748Z,98310.59
2022-10-10T13:43:21.529Z,98312.09
2022-10-10T13:46:24.405Z,98312.22
2022-10-10T13:49:28.279Z,98306.66
2022-10-10T13:52:30.087Z,98309.59
2022-10-10T13:55:36.585Z,98309.78
2022-10-10T13:58:40.981Z,98307.47
2022-10-10T14:01:43.952Z,98315.78
2022-10-10T14:04:49.759Z,98319.31
2022-10-10T14:07:51.907Z,98324.69
2022-10-10T14:11:02.508Z,98325.75
2022-10-10T14:14:08.075Z,98325.38
2022-10-10T14:17:11.456Z,98328.38
2022-10-10T14:20:14.705Z,98341.09
2022-10-10T14:23:17.306Z,98331.19
2022-10-10T14:26:19.884Z,98342.81
2022-10-10T14:29:21.839Z,98332.06
2022-10-10T14:32:27.090Z,98327.41
2022-10-10T14:35:30.340Z,98328.50
2022-10-10T14:38:32.044Z,98325.94
2022-10-10T14:41:33.733Z,98328.84
2022-10-10T14:44:35.374Z,98340.78
2022-10-10T14:47:37.036Z,98339.06
2022-10-10T14:50:44.006Z,98334.13
2022-10-10T14:53:45.595Z,98344.75
2022-10-10T14:57:10.156Z,98338.75
2022-10-10T15:00:15.218Z,98334.53
2022-10-10T15:03:17.460Z,98356.81
2022-10-10T15:06:20.567Z,98344.34
2022-10-10T15:09:40.668Z,98345.41
2022-10-10T15:12:44.906Z,98339.41
2022-10-10T15:15:49.605Z,98346.75
2022-10-10T15:18:54.472Z,98341.34
2022-10-10T15:21:58.237Z,98356.84
2022-10-10T15:25:00.231Z,98359.53
2022-10-10T15:28:02.472Z,98354.47
2022-10-10T15:31:04.637Z,98356.94
2022-10-10T15:34:08.543Z,98359.09
2022-10-10T15:37:11.448Z,98359.63
2022-10-10T15:40:13.795Z,98359.50
2022-10-10T15:43:16.014Z,98368.44
2022-10-10T15:46:17.719Z,98370.06
2022-10-10T15:49:19.407Z,98379.00
2022-10-10T15:52:26.523Z,98386.94
2022-10-10T15:55:28.463Z,98389.09
2022-10-10T15:58:30.165Z,98387.84
2022-10-10T16:01:32.093Z,98406.97
2022-10-10T16:04:38.128Z,98412.69
2022-10-10T16:07:47.556Z,98404.84
2022-10-10T16:10:49.687Z,98415.78
2022-10-10T16:13:52.482Z,98420.41
2022-10-10T16:16:54.150Z,98420.00
2022-10-10T16:19:56.046Z,98424.19
2022-10-10T16:22:59.095Z,98441.69
2022-10-10T16:26:05.265Z,98432.66
2022-10-10T16:29:10.157Z,98443.75
2022-10-10T16:32:11.818Z,98447.50
2022-10-10T16:35:14.542Z,98441.56
2022-10-10T16:38:17.464Z,98446.28
2022-10-10T16:41:42.510Z,98453.78
2022-10-10T16:44:40.969Z,98466.81
2022-10-10T16:47:42.721Z,98464.50
2022-10-10T16:50:44.486Z,98471.16
2022-10-10T16:53:47.762Z,98479.50
2022-10-10T16:56:49.487Z,98483.56
2022-10-10T16:59:51.275Z,98492.78
2022-10-10T17:02:53.116Z,98497.50
2022-10-10T17:06:01.048Z,98486.06
2022-10-10T17:09:05.681Z,98504.97
2022-10-10T17:12:07.552Z,98505.91
2022-10-10T17:15:09.626Z,98515.03
2022-10-10T17:18:11.366Z,98519.94
2022-10-10T17:21:15.021Z,98524.16
2022-10-10T17:24:17.958Z,98542.72
2022-10-10T17:27:19.521Z,98547.50
2022-10-10T17:30:21.179Z,98557.53
2022-10-10T17:33:23.556Z,98564.72
2022-10-10T17:36:25.938Z,98572.03
2022-10-10T17:39:29.069Z,98569.03
2022-10-10T17:42:33.026Z,98584.03
2022-10-10T17:45:35.342Z,98596.03
2022-10-10T17:48:38.808Z,98598.03
2022-10-10T17:51:40.896Z,98594.56
2022-10-10T17:54:43.989Z,98598.22
2022-10-10T17:57:49.139Z,98617.31
2022-10-10T18:00:51.090Z,98618.78
2022-10-10T18:03:52.771Z,98613.97
2022-10-10T18:06:54.616Z,98627.97
2022-10-10T18:09:57.600Z,98634.78
2022-10-10T18:12:59.894Z,98635.13
2022-10-10T18:16:07.211Z,98631.84
2022-10-10T18:19:09.150Z,98634.94
2022-10-10T18:22:10.693Z,98642.19
2022-10-10T18:25:15.099Z,98650.38
2022-10-10T18:28:16.825Z,98649.44
2022-10-10T18:31:20.113Z,98654.72
2022-10-10T18:34:21.986Z,98661.94
2022-10-10T18:37:23.499Z,98660.31
2022-10-10T18:40:26.691Z,98666.09
2022-10-10T18:43:29.041Z,98679.63
2022-10-10T18:46:30.669Z,98677.13
2022-10-10T18:49:32.294Z,98676.47
2022-10-10T18:52:35.101Z,98674.13
2022-10-10T18:55:38.187Z,98685.72
2022-10-10T18:58:40.463Z,98683.19
2022-10-10T19:01:45.310Z,98684.94
2022-10-10T19:04:48.497Z,98693.72
2022-10-10T19:07:50.228Z,98699.16
2022-10-10T19:10:53.225Z,98706.16
2022-10-10T19:13:55.136Z,98710.56
2022-10-10T19:16:56.826Z,98717.91
2022-10-10T19:20:00.971Z,98726.22
2022-10-10T19:23:02.665Z,98733.66
2022-10-10T19:26:07.572Z,98747.41
2022-10-10T19:29:12.671Z,98757.13
2022-10-10T19:32:15.039Z,98761.66
2022-10-10T19:35:16.689Z,98768.06
2022-10-10T19:38:18.322Z,98780.03
2022-10-10T19:41:21.814Z,98775.28
2022-10-10T19:44:23.478Z,98782.53
2022-10-10T19:47:25.059Z,98791.81
2022-10-10T19:50:26.683Z,98798.16
2022-10-10T19:53:28.361Z,98797.34
2022-10-10T19:56:31.446Z,98813.41
2022-10-10T19:59:33.221Z,98817.78
2022-10-10T20:02:35.164Z,98825.97
2022-10-10T20:05:36.955Z,98820.84
2022-10-10T20:08:38.635Z,98820.97
2022-10-10T20:11:41.682Z,98823.06
2022-10-10T20:14:43.241Z,98830.41
2022-10-10T20:17:44.743Z,98843.28
2022-10-10T20:20:48.198Z,98844.41
2022-10-10T20:23:49.899Z,98849.03
2022-10-10T20:26:54.826Z,98861.69
2022-10-10T20:29:56.461Z,98862.09
2022-10-10T20:32:58.112Z,98864.13
2022-10-10T20:36:02.920Z,98862.53
2022-10-10T20:39:06.066Z,98867.91
2022-10-10T20:42:09.282Z,98880.53
2022-10-10T20:45:11.500Z,98876.25
2022-10-10T20:48:13.087Z,98881.72
2022-10-10T20:51:14.789Z,98888.06
2022-10-10T20:54:17.040Z,98891.94
2022-10-10T20:57:21.194Z,98906.19
2022-10-10T21:00:22.889Z,98899.03
2022-10-10T21:03:24.567Z,98908.97
2022-10-10T21:06:27.704Z,98918.00
2022-10-10T21:09:29.565Z,98917.47
2022-10-10T21:12:32.700Z,98927.34
2022-10-10T21:15:34.253Z,98933.59
2022-10-10T21:18:36.119Z,98935.47
2022-10-10T21:21:40.304Z,98948.13
2022-10-10T21:24:41.944Z,98941.19
2022-10-10T21:27:45.009Z,98947.47
2022-10-10T21:30:47.268Z,98959.34
2022-10-10T21:33:49.240Z,98954.22
2022-10-10T21:36:50.802Z,98955.53
2022-10-10T21:39:52.269Z,98957.44
2022-10-10T21:42:55.652Z,98960.91
2022-10-10T21:46:02.291Z,98964.78
2022-10-10T21:49:05.183Z,98965.78
2022-10-10T21:52:09.539Z,98972.13
2022-10-10T21:55:11.200Z,98980.25
2022-10-10T21:58:14.081Z,98986.53
2022-10-10T22:01:16.901Z,98990.06
2022-10-10T22:04:20.601Z,98998.31
2022-10-10T22:07:24.843Z,98995.09
2022-10-10T22:10:27.538Z,99003.28
2022-10-10T22:13:30.539Z,98997.97
2022-10-10T22:16:32.753Z,99004.91
2022-10-10T22:19:37.999Z,99006.03
2022-10-10T22:22:40.465Z,99005.28
2022-10-10T22:25:43.981Z,99015.28
2022-10-10T22:28:47.037Z,99018.13
2022-10-10T22:31:48.580Z,99017.31
2022-10-10T22:34:50.242Z,99024.31
2022-10-10T22:37:52.487Z,99021.16
2022-10-10T22:40:54.275Z,99016.81
2022-10-10T22:43:57.433Z,99016.03
2022-10-10T22:46:59.074Z,99030.28
2022-10-10T22:50:00.741Z,99023.22
2022-10-10T22:53:02.592Z,99028.78
2022-10-10T22:56:04.913Z,99033.38
2022-10-10T22:59:08.195Z,99030.72
2022-10-10T23:02:10.499Z,99024.44
2022-10-10T23:05:14.928Z,99029.84
2022-10-10T23:08:16.488Z,99035.09
2022-10-10T23:11:18.124Z,99030.66
2022-10-10T23:14:21.090Z,99020.97
2022-10-10T23:17:22.944Z,99036.25
2022-10-10T23:20:24.786Z,99038.06
2022-10-10T23:23:26.337Z,99038.41
2022-10-10T23:26:27.877Z,99036.97
2022-10-10T23:29:31.018Z,99033.69
2022-10-10T23:32:32.600Z,99039.19
2022-10-10T23:35:34.368Z,99044.63
2022-10-10T23:38:36.165Z,99046.34
2022-10-10T23:41:37.987Z,99050.69
2022-10-10T23:44:41.044Z,99050.69
2022-10-10T23:47:42.550Z,99057.09
2022-10-10T23:50:44.380Z,99060.84
2022-10-10T23:53:45.949Z,99064.56
2022-10-10T23:56:47.548Z,99067.31
2022-10-10T23:59:50.697Z,99068.28
